Edson, Edson Airport (CYET)

NameEdson Airport
CityEdson
CountryCanada
ICAOCYET
IATAYET
Altitude928 m
CoordinatesGoogle Map
Live Air TrafficLiveATC.net
METARCYET 232000Z AUTO 00000KT 9SM CLR 15/09 A2980 RMK SLP101 DENSITY ALT 3800FT
2019-08-23 20:00:00 Wind: North (0°) 0 m/s - Visibility: 14484.06 m - Temperature: 15 °C - Dew point: 9 °C - Humidity: 67.6% - Pressure: 1009.14 hPa
Statistics

The table below shows the detailed information of all flights to/from Edson, Edson Airport (CYET).